createdAt,value
2018-05-21T00:00:01.152Z,0
2018-05-21T00:00:13.670Z,0
2018-05-21T00:00:26.358Z,1.609344
2018-05-21T00:00:38.781Z,1.609344
2018-05-21T00:00:51.199Z,1.609344
2018-05-21T00:01:03.617Z,1.609344
2018-05-21T00:01:16.047Z,0
2018-05-21T00:01:28.520Z,0
2018-05-21T00:01:40.933Z,1.609344
2018-05-21T00:01:53.354Z,0
2018-05-21T00:02:05.759Z,1.609344
2018-05-21T00:02:18.175Z,3.218688
2018-05-21T00:02:30.593Z,4.828032
2018-05-21T00:02:43.002Z,3.218688
2018-05-21T00:02:55.405Z,3.218688
2018-05-21T00:03:07.812Z,4.828032
2018-05-21T00:03:20.223Z,6.437376
2018-05-21T00:03:32.627Z,4.828032
2018-05-21T00:03:45.024Z,3.218688
2018-05-21T00:03:57.535Z,1.609344
2018-05-21T00:04:09.957Z,4.828032
2018-05-21T00:04:22.370Z,1.609344
2018-05-21T00:04:34.774Z,1.609344
2018-05-21T00:04:47.184Z,6.437376
2018-05-21T00:04:59.595Z,8.04672
2018-05-21T00:05:12.003Z,8.04672
2018-05-21T00:05:24.440Z,3.218688
2018-05-21T00:05:36.829Z,4.828032
2018-05-21T00:05:49.259Z,4.828032
2018-05-21T00:06:01.681Z,3.218688
2018-05-21T00:06:14.194Z,3.218688
2018-05-21T00:06:26.603Z,4.828032
2018-05-21T00:06:39.075Z,3.218688
2018-05-21T00:06:51.514Z,1.609344
2018-05-21T00:07:03.936Z,1.609344
2018-05-21T00:07:16.341Z,3.218688
2018-05-21T00:07:28.748Z,8.04672
2018-05-21T00:07:41.158Z,4.828032
2018-05-21T00:07:53.568Z,3.218688
2018-05-21T00:08:05.973Z,1.609344
2018-05-21T00:08:18.375Z,3.218688
2018-05-21T00:08:30.795Z,1.609344
2018-05-21T00:08:43.201Z,1.609344
2018-05-21T00:08:55.628Z,4.828032
2018-05-21T00:09:08.040Z,3.218688
2018-05-21T00:09:20.453Z,0
2018-05-21T00:09:32.881Z,0
2018-05-21T00:09:45.299Z,0
2018-05-21T00:09:57.781Z,0
2018-05-21T00:10:10.182Z,0
2018-05-21T00:10:22.626Z,0
2018-05-21T00:10:35.110Z,0
2018-05-21T00:10:47.515Z,0
2018-05-21T00:10:59.905Z,0
2018-05-21T00:11:12.319Z,0
2018-05-21T00:11:24.706Z,0
2018-05-21T00:11:37.111Z,3.218688
2018-05-21T00:11:49.541Z,6.437376
2018-05-21T00:12:02.023Z,3.218688
2018-05-21T00:12:14.442Z,3.218688
2018-05-21T00:12:26.857Z,8.04672
2018-05-21T00:12:39.276Z,6.437376
2018-05-21T00:12:51.697Z,3.218688
2018-05-21T00:13:04.103Z,6.437376
2018-05-21T00:13:16.507Z,6.437376
2018-05-21T00:13:28.916Z,3.218688
2018-05-21T00:13:41.310Z,3.218688
2018-05-21T00:13:53.709Z,4.828032
2018-05-21T00:14:06.125Z,1.609344
2018-05-21T00:14:18.616Z,6.437376
2018-05-21T00:14:31.032Z,1.609344
2018-05-21T00:14:43.428Z,1.609344
2018-05-21T00:14:55.855Z,1.609344
2018-05-21T00:15:08.270Z,0
2018-05-21T00:15:20.765Z,0
2018-05-21T00:15:33.183Z,3.218688
2018-05-21T00:15:45.856Z,3.218688
2018-05-21T00:15:58.265Z,3.218688
2018-05-21T00:16:10.760Z,4.828032
2018-05-21T00:16:23.166Z,3.218688
2018-05-21T00:16:35.575Z,1.609344
2018-05-21T00:16:48.696Z,1.609344
2018-05-21T00:17:01.431Z,3.218688
2018-05-21T00:17:13.856Z,1.609344
2018-05-21T00:17:26.279Z,0
2018-05-21T00:17:38.682Z,1.609344
2018-05-21T00:17:51.182Z,1.609344
2018-05-21T00:18:03.597Z,0
2018-05-21T00:18:16.102Z,0
2018-05-21T00:18:28.508Z,1.609344
2018-05-21T00:18:40.908Z,1.609344
2018-05-21T00:18:53.299Z,0
2018-05-21T00:19:05.716Z,0
2018-05-21T00:19:18.112Z,1.609344
2018-05-21T00:19:30.541Z,4.828032
2018-05-21T00:19:42.966Z,1.609344
2018-05-21T00:19:55.375Z,1.609344
2018-05-21T00:20:07.788Z,0
2018-05-21T00:20:20.203Z,0
2018-05-21T00:20:32.628Z,0
2018-05-21T00:20:45.040Z,0
2018-05-21T00:20:57.497Z,0
2018-05-21T00:21:09.885Z,3.218688
2018-05-21T00:21:22.301Z,6.437376
2018-05-21T00:21:34.708Z,1.609344
2018-05-21T00:21:47.112Z,0
2018-05-21T00:21:59.518Z,1.609344
2018-05-21T00:22:11.919Z,1.609344
2018-05-21T00:22:24.332Z,3.218688
2018-05-21T00:22:36.726Z,8.04672
2018-05-21T00:22:49.129Z,3.218688
2018-05-21T00:23:01.553Z,0
2018-05-21T00:23:13.987Z,0
2018-05-21T00:23:26.400Z,1.609344
2018-05-21T00:23:38.829Z,1.609344
2018-05-21T00:23:51.261Z,0
2018-05-21T00:24:03.771Z,0
2018-05-21T00:24:16.184Z,0
2018-05-21T00:24:28.590Z,0
2018-05-21T00:24:40.981Z,0
2018-05-21T00:24:53.521Z,0
2018-05-21T00:25:05.932Z,0
2018-05-21T00:25:18.335Z,0
2018-05-21T00:25:30.747Z,0
2018-05-21T00:25:43.144Z,0
2018-05-21T00:25:55.539Z,1.609344
2018-05-21T00:26:07.952Z,0
2018-05-21T00:26:20.369Z,1.609344
2018-05-21T00:26:32.773Z,1.609344
2018-05-21T00:26:45.175Z,0
2018-05-21T00:26:57.580Z,3.218688
2018-05-21T00:27:09.999Z,1.609344
2018-05-21T00:27:22.474Z,0
2018-05-21T00:27:34.978Z,0
2018-05-21T00:27:47.401Z,1.609344
2018-05-21T00:27:59.803Z,3.218688
2018-05-21T00:28:12.290Z,1.609344
2018-05-21T00:28:24.704Z,0
2018-05-21T00:28:37.097Z,0
2018-05-21T00:28:49.490Z,1.609344
2018-05-21T00:29:01.893Z,1.609344
2018-05-21T00:29:14.294Z,1.609344
2018-05-21T00:29:26.758Z,0
2018-05-21T00:29:39.186Z,1.609344
2018-05-21T00:29:51.574Z,6.437376
2018-05-21T00:30:04.005Z,9.656064
2018-05-21T00:30:16.479Z,6.437376
2018-05-21T00:30:29.000Z,4.828032
2018-05-21T00:30:41.529Z,4.828032
2018-05-21T00:30:53.940Z,3.218688
2018-05-21T00:31:06.465Z,6.437376
2018-05-21T00:31:18.863Z,3.218688
2018-05-21T00:31:31.272Z,1.609344
2018-05-21T00:31:43.673Z,1.609344
2018-05-21T00:31:56.067Z,3.218688
2018-05-21T00:32:08.473Z,3.218688
2018-05-21T00:32:20.884Z,0
2018-05-21T00:32:33.286Z,0
2018-05-21T00:32:45.708Z,0
2018-05-21T00:32:58.117Z,0
2018-05-21T00:33:10.526Z,1.609344
2018-05-21T00:33:22.923Z,0
2018-05-21T00:33:35.333Z,1.609344
2018-05-21T00:33:47.741Z,1.609344
2018-05-21T00:34:00.148Z,3.218688
2018-05-21T00:34:12.587Z,3.218688
2018-05-21T00:34:25.001Z,1.609344
2018-05-21T00:34:37.407Z,0
2018-05-21T00:34:49.829Z,0
2018-05-21T00:35:02.313Z,0
2018-05-21T00:35:14.723Z,0
2018-05-21T00:35:27.153Z,1.609344
2018-05-21T00:35:39.571Z,1.609344
2018-05-21T00:35:51.992Z,0
2018-05-21T00:36:04.409Z,1.609344
2018-05-21T00:36:16.934Z,3.218688
2018-05-21T00:36:29.325Z,1.609344
2018-05-21T00:36:41.743Z,3.218688
2018-05-21T00:36:54.147Z,3.218688
2018-05-21T00:37:06.534Z,1.609344
2018-05-21T00:37:18.966Z,3.218688
2018-05-21T00:37:31.399Z,1.609344
2018-05-21T00:37:43.793Z,1.609344
2018-05-21T00:37:56.204Z,3.218688
2018-05-21T00:38:08.615Z,6.437376
2018-05-21T00:38:21.020Z,8.04672
2018-05-21T00:38:33.431Z,6.437376
2018-05-21T00:38:45.835Z,3.218688
2018-05-21T00:38:58.252Z,3.218688
2018-05-21T00:39:10.740Z,3.218688
2018-05-21T00:39:23.141Z,1.609344
2018-05-21T00:39:35.542Z,0
2018-05-21T00:39:47.957Z,3.218688
2018-05-21T00:40:00.427Z,1.609344
2018-05-21T00:40:12.830Z,1.609344
2018-05-21T00:40:25.234Z,1.609344
2018-05-21T00:40:37.651Z,1.609344
2018-05-21T00:40:50.128Z,1.609344
2018-05-21T00:41:02.544Z,0
2018-05-21T00:41:15.028Z,1.609344
2018-05-21T00:41:27.433Z,1.609344
2018-05-21T00:41:39.926Z,1.609344
2018-05-21T00:41:52.323Z,0
2018-05-21T00:42:04.823Z,1.609344
2018-05-21T00:42:17.257Z,0
2018-05-21T00:42:29.655Z,1.609344
2018-05-21T00:42:42.066Z,1.609344
2018-05-21T00:42:54.546Z,3.218688
2018-05-21T00:43:06.970Z,1.609344
2018-05-21T00:43:19.387Z,3.218688
2018-05-21T00:43:31.791Z,3.218688
2018-05-21T00:43:44.244Z,3.218688
2018-05-21T00:43:56.849Z,1.609344
2018-05-21T00:44:09.251Z,0
2018-05-21T00:44:21.637Z,0
2018-05-21T00:44:34.087Z,0
2018-05-21T00:44:46.487Z,1.609344
2018-05-21T00:44:58.893Z,1.609344
2018-05-21T00:45:11.309Z,0
2018-05-21T00:45:24.050Z,0
2018-05-21T00:45:36.462Z,0
2018-05-21T00:45:48.866Z,0
2018-05-21T00:46:01.283Z,1.609344
2018-05-21T00:46:13.705Z,1.609344
2018-05-21T00:46:26.105Z,1.609344
2018-05-21T00:46:38.524Z,0
2018-05-21T00:46:50.930Z,1.609344
2018-05-21T00:47:03.449Z,1.609344
2018-05-21T00:47:15.890Z,0
2018-05-21T00:47:28.378Z,1.609344
2018-05-21T00:47:40.775Z,1.609344
2018-05-21T00:47:53.223Z,1.609344
2018-05-21T00:48:05.627Z,0
2018-05-21T00:48:18.183Z,1.609344
2018-05-21T00:48:30.603Z,1.609344
2018-05-21T00:48:43.009Z,1.609344
2018-05-21T00:48:55.425Z,1.609344
2018-05-21T00:49:07.918Z,3.218688
2018-05-21T00:49:20.401Z,3.218688
2018-05-21T00:49:32.802Z,6.437376
2018-05-21T00:49:45.282Z,6.437376
2018-05-21T00:49:57.689Z,3.218688
2018-05-21T00:50:10.111Z,1.609344
2018-05-21T00:50:23.050Z,1.609344
2018-05-21T00:50:35.761Z,1.609344
2018-05-21T00:50:48.166Z,1.609344
2018-05-21T00:51:00.592Z,1.609344
2018-05-21T00:51:13.003Z,0
2018-05-21T00:51:25.491Z,0
2018-05-21T00:51:37.894Z,0
2018-05-21T00:51:50.337Z,0
2018-05-21T00:52:02.739Z,1.609344
2018-05-21T00:52:15.162Z,1.609344
2018-05-21T00:52:27.566Z,0
2018-05-21T00:52:39.969Z,1.609344
2018-05-21T00:52:52.377Z,0
2018-05-21T00:53:04.784Z,1.609344
2018-05-21T00:53:17.184Z,3.218688
2018-05-21T00:53:29.592Z,1.609344
2018-05-21T00:53:41.988Z,1.609344
2018-05-21T00:53:54.399Z,1.609344
2018-05-21T00:54:06.901Z,0
2018-05-21T00:54:19.300Z,0
2018-05-21T00:54:31.740Z,1.609344
2018-05-21T00:54:44.142Z,0
2018-05-21T00:54:56.563Z,1.609344
2018-05-21T00:55:08.965Z,1.609344
2018-05-21T00:55:21.370Z,1.609344
2018-05-21T00:55:33.774Z,3.218688
2018-05-21T00:55:46.192Z,3.218688
2018-05-21T00:55:58.608Z,3.218688
2018-05-21T00:56:11.109Z,1.609344
2018-05-21T00:56:23.503Z,1.609344
2018-05-21T00:56:35.914Z,1.609344
2018-05-21T00:56:48.317Z,0
2018-05-21T00:57:00.724Z,0
2018-05-21T00:57:13.130Z,0
2018-05-21T00:57:25.534Z,1.609344
2018-05-21T00:57:37.927Z,1.609344
2018-05-21T00:57:55.389Z,0
2018-05-21T00:58:07.778Z,0
2018-05-21T00:58:20.186Z,0
2018-05-21T00:58:32.608Z,0
2018-05-21T00:58:45.005Z,1.609344
2018-05-21T00:58:57.413Z,1.609344
2018-05-21T00:59:09.812Z,0
2018-05-21T00:59:22.209Z,0
2018-05-21T00:59:34.614Z,1.609344
2018-05-21T00:59:47.017Z,1.609344
2018-05-21T00:59:59.427Z,0
2018-05-21T01:00:11.876Z,1.609344
2018-05-21T01:00:24.463Z,1.609344
2018-05-21T01:00:36.914Z,1.609344
2018-05-21T01:00:49.426Z,1.609344
2018-05-21T01:01:01.856Z,0
2018-05-21T01:01:14.270Z,0
2018-05-21T01:01:26.680Z,0
2018-05-21T01:01:39.101Z,0
2018-05-21T01:01:51.515Z,0
2018-05-21T01:02:03.929Z,1.609344
2018-05-21T01:02:16.351Z,1.609344
2018-05-21T01:02:28.762Z,1.609344
2018-05-21T01:02:41.184Z,1.609344
2018-05-21T01:02:53.609Z,0
2018-05-21T01:03:06.029Z,0
2018-05-21T01:03:18.450Z,1.609344
2018-05-21T01:03:30.912Z,1.609344
2018-05-21T01:03:43.420Z,0
2018-05-21T01:03:55.831Z,1.609344
2018-05-21T01:04:08.243Z,1.609344
2018-05-21T01:04:20.654Z,1.609344
2018-05-21T01:04:33.120Z,1.609344
2018-05-21T01:04:45.621Z,1.609344
2018-05-21T01:04:58.043Z,0
2018-05-21T01:05:10.485Z,1.609344
2018-05-21T01:05:22.979Z,3.218688
2018-05-21T01:05:35.399Z,3.218688
2018-05-21T01:05:47.802Z,3.218688
2018-05-21T01:06:00.199Z,1.609344
2018-05-21T01:06:12.604Z,3.218688
2018-05-21T01:06:25.005Z,1.609344
2018-05-21T01:06:37.420Z,1.609344
2018-05-21T01:06:49.821Z,1.609344
2018-05-21T01:07:02.257Z,3.218688
2018-05-21T01:07:14.659Z,1.609344
2018-05-21T01:07:27.062Z,1.609344
2018-05-21T01:07:39.475Z,0
2018-05-21T01:07:51.877Z,1.609344
2018-05-21T01:08:04.292Z,3.218688
2018-05-21T01:08:16.699Z,1.609344
2018-05-21T01:08:29.107Z,3.218688
2018-05-21T01:08:41.506Z,3.218688
2018-05-21T01:08:53.903Z,3.218688
2018-05-21T01:09:06.311Z,1.609344
2018-05-21T01:09:18.697Z,3.218688
2018-05-21T01:09:31.111Z,1.609344
2018-05-21T01:09:43.507Z,1.609344
2018-05-21T01:09:55.900Z,0
2018-05-21T01:10:08.307Z,1.609344
2018-05-21T01:10:20.893Z,1.609344
2018-05-21T01:10:33.295Z,3.218688
2018-05-21T01:10:45.690Z,1.609344
2018-05-21T01:10:58.106Z,3.218688
2018-05-21T01:11:10.548Z,3.218688
2018-05-21T01:11:22.956Z,1.609344
2018-05-21T01:11:35.357Z,3.218688
2018-05-21T01:11:47.759Z,1.609344
2018-05-21T01:12:00.319Z,1.609344
2018-05-21T01:12:12.713Z,1.609344
2018-05-21T01:12:25.209Z,1.609344
2018-05-21T01:12:37.626Z,1.609344
2018-05-21T01:12:50.023Z,3.218688
2018-05-21T01:13:02.433Z,1.609344
2018-05-21T01:13:14.840Z,1.609344
2018-05-21T01:13:27.270Z,3.218688
2018-05-21T01:13:39.674Z,1.609344
2018-05-21T01:13:52.086Z,1.609344
2018-05-21T01:14:04.487Z,1.609344
2018-05-21T01:14:16.990Z,1.609344
2018-05-21T01:14:29.385Z,3.218688
2018-05-21T01:14:41.780Z,1.609344
2018-05-21T01:14:54.172Z,1.609344
2018-05-21T01:15:06.574Z,1.609344
2018-05-21T01:15:18.986Z,1.609344
2018-05-21T01:15:31.403Z,1.609344
2018-05-21T01:15:44.598Z,1.609344
2018-05-21T01:15:57.613Z,1.609344
2018-05-21T01:16:10.008Z,1.609344
2018-05-21T01:16:22.425Z,3.218688
2018-05-21T01:16:34.905Z,3.218688
2018-05-21T01:16:47.300Z,3.218688
2018-05-21T01:16:59.700Z,0
2018-05-21T01:17:12.118Z,0
2018-05-21T01:17:24.512Z,0
2018-05-21T01:17:36.927Z,0
2018-05-21T01:17:49.346Z,0
2018-05-21T01:18:01.750Z,0
2018-05-21T01:18:14.351Z,0
2018-05-21T01:18:26.770Z,0
2018-05-21T01:18:39.195Z,0
2018-05-21T01:18:51.616Z,0
2018-05-21T01:19:04.029Z,0
2018-05-21T01:19:16.451Z,0
2018-05-21T01:19:28.865Z,0
2018-05-21T01:19:41.277Z,0
2018-05-21T01:19:53.683Z,0
2018-05-21T01:20:06.092Z,0
2018-05-21T01:20:18.687Z,0
2018-05-21T01:20:31.112Z,1.609344
2018-05-21T01:20:43.525Z,1.609344
2018-05-21T01:20:55.928Z,1.609344
2018-05-21T01:21:08.331Z,1.609344
2018-05-21T01:21:20.760Z,3.218688
2018-05-21T01:21:33.168Z,1.609344
2018-05-21T01:21:45.581Z,1.609344
2018-05-21T01:21:57.994Z,0
2018-05-21T01:22:10.406Z,0
2018-05-21T01:22:22.811Z,6.437376
2018-05-21T01:22:35.231Z,1.609344
2018-05-21T01:22:47.697Z,1.609344
2018-05-21T01:23:00.138Z,3.218688
2018-05-21T01:23:12.546Z,1.609344
2018-05-21T01:23:25.003Z,0
2018-05-21T01:23:37.412Z,1.609344
2018-05-21T01:23:49.807Z,1.609344
2018-05-21T01:24:02.208Z,3.218688
2018-05-21T01:24:14.697Z,3.218688
2018-05-21T01:24:27.097Z,3.218688
2018-05-21T01:24:39.520Z,1.609344
2018-05-21T01:24:52.090Z,1.609344
2018-05-21T01:25:04.512Z,1.609344
2018-05-21T01:25:16.913Z,1.609344
2018-05-21T01:25:29.308Z,0
2018-05-21T01:25:41.812Z,0
2018-05-21T01:25:54.222Z,0
2018-05-21T01:26:06.712Z,1.609344
2018-05-21T01:26:19.136Z,1.609344
2018-05-21T01:26:31.627Z,1.609344
2018-05-21T01:26:44.019Z,3.218688
2018-05-21T01:26:56.419Z,3.218688
2018-05-21T01:27:08.836Z,1.609344
2018-05-21T01:27:21.228Z,1.609344
2018-05-21T01:27:33.630Z,1.609344
2018-05-21T01:27:46.135Z,6.437376
2018-05-21T01:27:58.548Z,3.218688
2018-05-21T01:28:10.942Z,3.218688
2018-05-21T01:28:23.337Z,1.609344
2018-05-21T01:28:35.740Z,4.828032
2018-05-21T01:28:48.241Z,3.218688
2018-05-21T01:29:00.644Z,3.218688
2018-05-21T01:29:13.054Z,3.218688
2018-05-21T01:29:25.453Z,3.218688
2018-05-21T01:29:37.854Z,3.218688
2018-05-21T01:29:50.285Z,3.218688
2018-05-21T01:30:02.693Z,4.828032
2018-05-21T01:30:15.169Z,3.218688
2018-05-21T01:30:27.569Z,3.218688
2018-05-21T01:30:39.974Z,4.828032
2018-05-21T01:30:52.372Z,3.218688
2018-05-21T01:31:04.781Z,3.218688
2018-05-21T01:31:17.327Z,3.218688
2018-05-21T01:31:29.726Z,4.828032
2018-05-21T01:31:42.209Z,6.437376
2018-05-21T01:31:54.616Z,6.437376
2018-05-21T01:32:07.023Z,3.218688
2018-05-21T01:32:19.419Z,1.609344
2018-05-21T01:32:31.910Z,3.218688
2018-05-21T01:32:44.322Z,3.218688
2018-05-21T01:32:56.715Z,3.218688
2018-05-21T01:33:09.151Z,4.828032
2018-05-21T01:33:21.546Z,1.609344
2018-05-21T01:33:33.946Z,0
2018-05-21T01:33:46.463Z,1.609344
2018-05-21T01:33:58.850Z,3.218688
2018-05-21T01:34:11.278Z,1.609344
2018-05-21T01:34:23.754Z,1.609344
2018-05-21T01:34:36.159Z,1.609344
2018-05-21T01:34:48.570Z,8.04672
2018-05-21T01:35:00.962Z,3.218688
2018-05-21T01:35:13.356Z,3.218688
2018-05-21T01:35:25.761Z,6.437376
2018-05-21T01:35:38.170Z,4.828032
2018-05-21T01:35:50.585Z,1.609344
2018-05-21T01:36:02.997Z,6.437376
2018-05-21T01:36:15.552Z,8.04672
2018-05-21T01:36:28.021Z,1.609344
2018-05-21T01:36:40.417Z,3.218688
2018-05-21T01:36:52.821Z,3.218688
2018-05-21T01:37:05.227Z,1.609344
2018-05-21T01:37:17.633Z,3.218688
2018-05-21T01:37:30.051Z,4.828032
2018-05-21T01:37:42.460Z,8.04672
2018-05-21T01:37:54.876Z,3.218688
2018-05-21T01:38:07.272Z,9.656064
2018-05-21T01:38:19.670Z,6.437376
2018-05-21T01:38:32.061Z,9.656064
2018-05-21T01:38:44.538Z,8.04672
2018-05-21T01:38:56.938Z,8.04672
2018-05-21T01:39:09.414Z,1.609344
2018-05-21T01:39:21.813Z,6.437376
2018-05-21T01:39:34.211Z,8.04672
2018-05-21T01:39:46.612Z,6.437376
2018-05-21T01:39:59.031Z,1.609344
2018-05-21T01:40:11.534Z,1.609344
2018-05-21T01:40:24.113Z,0
2018-05-21T01:40:36.536Z,1.609344
2018-05-21T01:40:48.932Z,6.437376
2018-05-21T01:41:01.330Z,1.609344
2018-05-21T01:41:13.839Z,1.609344
2018-05-21T01:41:26.246Z,1.609344
2018-05-21T01:41:38.646Z,6.437376
2018-05-21T01:41:51.040Z,8.04672
2018-05-21T01:42:03.438Z,1.609344
2018-05-21T01:42:15.833Z,1.609344
2018-05-21T01:42:28.243Z,4.828032
2018-05-21T01:42:40.651Z,4.828032
2018-05-21T01:42:53.054Z,3.218688
2018-05-21T01:43:05.450Z,3.218688
2018-05-21T01:43:17.847Z,3.218688
2018-05-21T01:43:30.243Z,9.656064
2018-05-21T01:43:42.631Z,8.04672
2018-05-21T01:43:55.021Z,3.218688
2018-05-21T01:44:07.428Z,3.218688
2018-05-21T01:44:19.817Z,4.828032
2018-05-21T01:44:32.311Z,9.656064
2018-05-21T01:44:44.708Z,9.656064
2018-05-21T01:44:57.142Z,6.437376
2018-05-21T01:45:09.584Z,6.437376
2018-05-21T01:45:22.266Z,1.609344
2018-05-21T01:45:34.671Z,3.218688
2018-05-21T01:45:47.077Z,4.828032
2018-05-21T01:45:59.478Z,6.437376
2018-05-21T01:46:11.885Z,3.218688
2018-05-21T01:46:24.306Z,3.218688
2018-05-21T01:46:36.705Z,1.609344
2018-05-21T01:46:49.113Z,3.218688
2018-05-21T01:47:01.525Z,3.218688
2018-05-21T01:47:13.936Z,3.218688
2018-05-21T01:47:26.359Z,1.609344
2018-05-21T01:47:38.770Z,8.04672
2018-05-21T01:47:51.196Z,12.874752
2018-05-21T01:48:03.617Z,6.437376
2018-05-21T01:48:16.102Z,8.04672
2018-05-21T01:48:28.673Z,8.04672
2018-05-21T01:48:41.086Z,6.437376
2018-05-21T01:48:53.502Z,3.218688
2018-05-21T01:49:06.061Z,3.218688
2018-05-21T01:49:18.500Z,1.609344
2018-05-21T01:49:30.924Z,6.437376
2018-05-21T01:49:43.345Z,3.218688
2018-05-21T01:49:55.758Z,3.218688
2018-05-21T01:50:08.235Z,3.218688
2018-05-21T01:50:20.646Z,3.218688
2018-05-21T01:50:33.065Z,3.218688
2018-05-21T01:50:45.483Z,8.04672
2018-05-21T01:50:57.894Z,8.04672
2018-05-21T01:51:10.310Z,3.218688
2018-05-21T01:51:22.725Z,3.218688
2018-05-21T01:51:35.126Z,14.484096
2018-05-21T01:51:47.526Z,9.656064
2018-05-21T01:51:59.941Z,6.437376
2018-05-21T01:52:12.367Z,6.437376
2018-05-21T01:52:24.797Z,4.828032
2018-05-21T01:52:37.207Z,3.218688
2018-05-21T01:52:49.615Z,3.218688
2018-05-21T01:53:02.013Z,1.609344
2018-05-21T01:53:14.428Z,3.218688
2018-05-21T01:53:26.817Z,6.437376
2018-05-21T01:53:39.209Z,3.218688
2018-05-21T01:53:51.612Z,4.828032
2018-05-21T01:54:04.007Z,3.218688
2018-05-21T01:54:16.433Z,4.828032
2018-05-21T01:54:28.911Z,8.04672
2018-05-21T01:54:41.382Z,4.828032
2018-05-21T01:54:53.795Z,8.04672
2018-05-21T01:55:06.215Z,8.04672
2018-05-21T01:55:18.620Z,3.218688
2018-05-21T01:55:31.021Z,1.609344
2018-05-21T01:55:43.433Z,9.656064
2018-05-21T01:55:55.834Z,3.218688
2018-05-21T01:56:08.251Z,4.828032
2018-05-21T01:56:20.659Z,9.656064
2018-05-21T01:56:33.064Z,3.218688
2018-05-21T01:56:45.474Z,3.218688
2018-05-21T01:56:57.965Z,3.218688
2018-05-21T01:57:10.389Z,6.437376
2018-05-21T01:57:22.793Z,9.656064
2018-05-21T01:57:35.196Z,14.484096
2018-05-21T01:57:47.595Z,8.04672
2018-05-21T01:58:00.315Z,4.828032
2018-05-21T01:58:12.720Z,6.437376
2018-05-21T01:58:25.131Z,6.437376
2018-05-21T01:58:37.650Z,6.437376
2018-05-21T01:58:50.057Z,8.04672
2018-05-21T01:59:02.513Z,3.218688
2018-05-21T01:59:14.938Z,3.218688
2018-05-21T01:59:27.348Z,1.609344
2018-05-21T01:59:39.773Z,6.437376
2018-05-21T01:59:52.264Z,11.265408
2018-05-21T02:00:04.709Z,8.04672
2018-05-21T02:00:17.347Z,8.04672
2018-05-21T02:00:29.795Z,6.437376
2018-05-21T02:00:42.250Z,1.609344
2018-05-21T02:00:54.771Z,9.656064
2018-05-21T02:01:07.194Z,6.437376
2018-05-21T02:01:19.595Z,3.218688
2018-05-21T02:01:32.001Z,3.218688
2018-05-21T02:01:44.412Z,6.437376
2018-05-21T02:01:56.854Z,6.437376
2018-05-21T02:02:09.291Z,1.609344
2018-05-21T02:02:21.712Z,8.04672
2018-05-21T02:02:34.115Z,3.218688
2018-05-21T02:02:46.545Z,4.828032
2018-05-21T02:02:58.967Z,3.218688
2018-05-21T02:03:11.387Z,3.218688
2018-05-21T02:03:23.793Z,3.218688
2018-05-21T02:03:36.250Z,3.218688
2018-05-21T02:03:48.665Z,4.828032
2018-05-21T02:04:01.077Z,9.656064
2018-05-21T02:04:13.522Z,8.04672
2018-05-21T02:04:25.944Z,8.04672
2018-05-21T02:04:38.358Z,6.437376
2018-05-21T02:04:50.791Z,1.609344
2018-05-21T02:05:03.204Z,1.609344
2018-05-21T02:05:15.625Z,6.437376
2018-05-21T02:05:28.036Z,9.656064
2018-05-21T02:05:40.433Z,4.828032
2018-05-21T02:05:52.853Z,6.437376
2018-05-21T02:06:05.273Z,3.218688
2018-05-21T02:06:17.688Z,8.04672
2018-05-21T02:06:30.095Z,6.437376
2018-05-21T02:06:42.495Z,1.609344
2018-05-21T02:06:54.902Z,4.828032
2018-05-21T02:07:07.301Z,4.828032
2018-05-21T02:07:19.702Z,6.437376
2018-05-21T02:07:32.115Z,11.265408
2018-05-21T02:07:44.520Z,8.04672
2018-05-21T02:07:56.929Z,6.437376
2018-05-21T02:08:09.344Z,6.437376
2018-05-21T02:08:22.456Z,9.656064
2018-05-21T02:08:35.767Z,6.437376
2018-05-21T02:08:48.735Z,6.437376
2018-05-21T02:09:01.231Z,6.437376
2018-05-21T02:09:13.721Z,3.218688
2018-05-21T02:09:26.308Z,8.04672
2018-05-21T02:09:38.744Z,6.437376
2018-05-21T02:09:51.166Z,1.609344
2018-05-21T02:10:03.604Z,3.218688
2018-05-21T02:10:16.006Z,3.218688
2018-05-21T02:10:28.419Z,6.437376
2018-05-21T02:10:40.835Z,3.218688
2018-05-21T02:10:53.234Z,3.218688
2018-05-21T02:11:05.647Z,3.218688
2018-05-21T02:11:18.052Z,3.218688
2018-05-21T02:11:30.480Z,3.218688
2018-05-21T02:11:42.874Z,3.218688
2018-05-21T02:11:55.460Z,3.218688
2018-05-21T02:12:07.892Z,6.437376
2018-05-21T02:12:20.338Z,3.218688
2018-05-21T02:12:32.740Z,3.218688
2018-05-21T02:12:45.151Z,1.609344
2018-05-21T02:12:57.572Z,3.218688
2018-05-21T02:13:10.009Z,3.218688
2018-05-21T02:13:22.425Z,3.218688
2018-05-21T02:13:34.824Z,1.609344
2018-05-21T02:13:47.272Z,1.609344
2018-05-21T02:13:59.726Z,1.609344
2018-05-21T02:14:12.285Z,1.609344
2018-05-21T02:14:24.705Z,1.609344
2018-05-21T02:14:37.192Z,6.437376
2018-05-21T02:14:49.598Z,3.218688
2018-05-21T02:15:02.045Z,9.656064
2018-05-21T02:15:14.524Z,6.437376
2018-05-21T02:15:26.932Z,6.437376
2018-05-21T02:15:39.339Z,3.218688
2018-05-21T02:15:51.936Z,0
2018-05-21T02:16:04.368Z,1.609344
2018-05-21T02:16:16.770Z,1.609344
2018-05-21T02:16:29.173Z,3.218688
2018-05-21T02:16:41.585Z,1.609344
2018-05-21T02:16:53.986Z,1.609344
2018-05-21T02:17:06.473Z,1.609344
2018-05-21T02:17:18.870Z,1.609344
2018-05-21T02:17:31.318Z,3.218688
2018-05-21T02:17:43.724Z,1.609344
2018-05-21T02:17:56.195Z,3.218688
2018-05-21T02:18:08.611Z,4.828032
2018-05-21T02:18:21.213Z,3.218688
2018-05-21T02:18:33.623Z,3.218688
2018-05-21T02:18:46.045Z,4.828032
2018-05-21T02:18:58.453Z,3.218688
2018-05-21T02:19:10.862Z,4.828032
2018-05-21T02:19:23.288Z,1.609344
2018-05-21T02:19:35.773Z,1.609344
2018-05-21T02:19:48.179Z,4.828032
2018-05-21T02:20:00.937Z,1.609344
2018-05-21T02:20:14.288Z,1.609344
2018-05-21T02:20:26.704Z,3.218688
2018-05-21T02:20:39.119Z,4.828032
2018-05-21T02:20:51.531Z,3.218688
2018-05-21T02:21:04.031Z,6.437376
2018-05-21T02:21:16.435Z,1.609344
2018-05-21T02:21:28.838Z,0
2018-05-21T02:21:41.253Z,0
2018-05-21T02:21:53.695Z,1.609344
2018-05-21T02:22:06.113Z,0
2018-05-21T02:22:18.532Z,1.609344
2018-05-21T02:22:30.944Z,1.609344
2018-05-21T02:22:43.357Z,1.609344
2018-05-21T02:22:55.773Z,1.609344
2018-05-21T02:23:08.206Z,4.828032
2018-05-21T02:23:20.672Z,3.218688
2018-05-21T02:23:33.083Z,1.609344
2018-05-21T02:23:45.504Z,3.218688
2018-05-21T02:23:57.914Z,3.218688
2018-05-21T02:24:10.310Z,3.218688
2018-05-21T02:24:22.776Z,8.04672
2018-05-21T02:24:35.198Z,6.437376
2018-05-21T02:24:47.618Z,3.218688
2018-05-21T02:25:00.093Z,3.218688
2018-05-21T02:25:12.486Z,1.609344
2018-05-21T02:25:24.891Z,3.218688
2018-05-21T02:25:37.302Z,3.218688
2018-05-21T02:25:49.725Z,0
2018-05-21T02:26:02.139Z,3.218688
2018-05-21T02:26:14.558Z,6.437376
2018-05-21T02:26:26.997Z,6.437376
2018-05-21T02:26:39.400Z,3.218688
2018-05-21T02:26:51.850Z,1.609344
2018-05-21T02:27:05.226Z,3.218688
2018-05-21T02:27:18.170Z,6.437376
2018-05-21T02:27:30.574Z,1.609344
2018-05-21T02:27:42.973Z,1.609344
2018-05-21T02:27:55.363Z,0
2018-05-21T02:28:07.767Z,1.609344
2018-05-21T02:28:20.268Z,1.609344
2018-05-21T02:28:32.674Z,3.218688
2018-05-21T02:28:45.081Z,1.609344
2018-05-21T02:28:57.505Z,3.218688
2018-05-21T02:29:09.915Z,3.218688
2018-05-21T02:29:22.325Z,3.218688
2018-05-21T02:29:34.753Z,3.218688
2018-05-21T02:29:47.170Z,3.218688
2018-05-21T02:29:59.639Z,1.609344
2018-05-21T02:30:12.085Z,1.609344
2018-05-21T02:30:24.519Z,0
2018-05-21T02:30:36.932Z,1.609344
2018-05-21T02:30:49.360Z,3.218688
2018-05-21T02:31:01.792Z,1.609344
2018-05-21T02:31:14.230Z,0
2018-05-21T02:31:26.657Z,0
2018-05-21T02:31:39.098Z,1.609344
2018-05-21T02:31:51.720Z,1.609344
2018-05-21T02:32:04.180Z,3.218688